Time;durP1;ratioP1;P1;durP2;ratioP2;P2;SDS_P1;SDS_P2;PMS_P1;PMS_P2;Temp;Humidity;BMP_temperature;BMP_pressure;BME280_temperature;BME280_humidity;BME280_pressure;Samples;Min_cycle;Max_cycle;Signal;HPM_P1;HPM_P2
2022/11/03 00:01:54;;;;;;;7.63;3.45;;;;;;;7.45;85.82;101542.59;5046203;28;20063;-68
2022/11/03 00:04:22;;;;;;;8.10;3.13;;;;;;;7.57;84.24;101549.25;5045523;28;20048;-68
2022/11/03 00:06:52;;;;;;;15.85;3.67;;;;;;;7.41;86.20;101550.53;5037211;28;20049;-68
2022/11/03 00:09:20;;;;;;;7.95;3.28;;;;;;;7.06;88.69;101546.22;5043105;28;20051;-68
2022/11/03 00:11:49;;;;;;;11.95;4.13;;;;;;;7.46;86.29;101551.28;5045012;28;20564;-68
2022/11/03 00:14:17;;;;;;;9.25;3.17;;;;;;;7.71;84.82;101554.97;5045005;28;20175;-68
2022/11/03 00:16:44;;;;;;;12.70;3.60;;;;;;;7.64;85.36;101543.84;5044608;28;20552;-68
2022/11/03 00:19:12;;;;;;;11.20;3.83;;;;;;;7.35;87.17;101539.34;5044046;28;20497;-68
2022/11/03 00:21:39;;;;;;;11.27;3.47;;;;;;;7.50;86.80;101535.50;5046249;28;20132;-68
2022/11/03 00:24:09;;;;;;;11.57;3.22;;;;;;;7.45;87.82;101540.00;5044910;28;20048;-68
2022/11/03 00:26:35;;;;;;;6.78;2.75;;;;;;;7.45;87.62;101537.38;5044067;28;20049;-68
2022/11/03 00:29:07;;;;;;;11.75;3.88;;;;;;;7.95;85.38;101537.75;5044449;28;20048;-68
2022/11/03 00:31:35;;;;;;;8.77;2.92;;;;;;;8.21;83.98;101540.47;5046172;28;20045;-68
2022/11/03 00:34:02;;;;;;;11.10;3.00;;;;;;;7.61;86.59;101538.66;5045336;28;20041;-68
2022/11/03 00:36:31;;;;;;;7.50;3.33;;;;;;;7.61;87.21;101543.06;5045870;28;20040;-68
2022/11/03 00:38:58;;;;;;;10.95;2.88;;;;;;;7.81;85.03;101541.59;5045370;28;20057;-68
2022/11/03 00:41:26;;;;;;;8.35;3.25;;;;;;;7.83;83.89;101544.19;5049038;28;20041;-67
2022/11/03 00:43:54;;;;;;;6.90;3.03;;;;;;;7.75;85.62;101535.72;5049317;28;20056;-67
2022/11/03 00:46:22;;;;;;;9.93;3.05;;;;;;;8.05;83.34;101540.06;5049982;28;20058;-67
2022/11/03 00:48:49;;;;;;;14.80;4.50;;;;;;;7.67;86.33;101532.44;5050079;28;20048;-67
2022/11/03 00:51:18;;;;;;;11.60;3.35;;;;;;;7.45;87.55;101531.31;5047792;28;20119;-68
2022/11/03 00:53:47;;;;;;;6.47;2.97;;;;;;;7.86;85.21;101522.34;5048935;28;20522;-68
2022/11/03 00:56:15;;;;;;;8.48;3.13;;;;;;;8.05;84.12;101529.63;5049676;28;20045;-68
2022/11/03 00:58:43;;;;;;;9.50;3.25;;;;;;;7.88;83.57;101528.38;5049455;28;20060;-68
2022/11/03 01:01:11;;;;;;;13.32;3.35;;;;;;;7.37;87.74;101521.06;5049111;28;20055;-68
2022/11/03 01:03:40;;;;;;;10.25;3.10;;;;;;;7.40;87.17;101522.72;5049441;28;20045;-67
2022/11/03 01:08:52;;;;;;;8.88;3.00;;;;;;;7.67;85.50;101512.41;5049523;28;20566;-67
2022/11/03 01:14:08;;;;;;;5.13;2.92;;;;;;;6.86;89.85;101515.41;5050088;28;20056;-68
2022/11/03 01:16:34;;;;;;;9.93;2.63;;;;;;;6.99;90.12;101515.94;5049991;28;20572;-70
2022/11/03 01:19:01;;;;;;;5.30;2.13;;;;;;;7.04;89.79;101511.50;5048411;28;20045;-67
2022/11/03 01:21:28;;;;;;;8.75;3.40;;;;;;;7.03;89.75;101517.59;5048648;28;20076;-68
2022/11/03 01:23:54;;;;;;;6.72;3.35;;;;;;;6.83;90.67;101511.13;5049073;28;20567;-67
2022/11/03 01:26:21;;;;;;;7.78;3.25;;;;;;;7.26;89.06;101502.22;5047748;28;20044;-68
2022/11/03 01:28:48;;;;;;;13.95;3.10;;;;;;;7.58;86.56;101507.44;5048413;28;20471;-67
2022/11/03 01:31:18;;;;;;;15.57;3.65;;;;;;;7.64;86.22;101509.03;5049328;28;20041;-67
2022/11/03 01:33:45;;;;;;;9.30;3.30;;;;;;;8.15;83.35;101504.09;5048406;28;20512;-68
2022/11/03 01:36:14;;;;;;;6.68;2.90;;;;;;;7.80;83.84;101500.72;5050085;28;20041;-68
2022/11/03 01:38:41;;;;;;;11.07;2.60;;;;;;;7.75;84.74;101502.63;5048707;28;20064;-68
2022/11/03 01:41:09;;;;;;;6.15;3.15;;;;;;;7.66;85.00;101495.03;5046486;28;20443;-68
2022/11/03 01:43:39;;;;;;;9.77;2.90;;;;;;;7.94;83.41;101489.06;5047408;28;20060;-68
2022/11/03 01:46:12;;;;;;;8.07;2.80;;;;;;;8.27;81.80;101490.66;5048563;28;20053;-68
2022/11/03 01:48:46;;;;;;;10.20;3.22;;;;;;;8.13;82.58;101490.22;5048976;28;20041;-68
2022/11/03 01:51:15;;;;;;;6.32;2.67;;;;;;;8.27;80.54;101483.69;5047185;28;20052;-68
2022/11/03 01:53:45;;;;;;;8.15;3.45;;;;;;;8.21;80.67;101488.22;5047038;28;20056;-68
2022/11/03 01:56:13;;;;;;;6.68;2.60;;;;;;;8.22;80.19;101482.97;5047979;28;20047;-68
2022/11/03 01:58:43;;;;;;;16.67;3.53;;;;;;;8.16;80.45;101484.91;5050154;28;20045;-68
2022/11/03 02:01:11;;;;;;;10.30;3.30;;;;;;;7.87;81.89;101475.28;5046902;28;20041;-68
2022/11/03 02:03:46;;;;;;;12.00;3.35;;;;;;;7.73;82.41;101480.91;5046955;28;20045;-68
2022/11/03 02:06:13;;;;;;;8.95;3.03;;;;;;;7.69;82.77;101479.28;5046723;28;20099;-68
2022/11/03 02:08:45;;;;;;;9.45;3.33;;;;;;;7.80;81.38;101461.56;5048479;28;20045;-68
2022/11/03 02:13:59;;;;;;;13.27;3.75;;;;;;;7.34;85.48;101451.56;5047649;28;20103;-68
2022/11/03 02:16:28;;;;;;;13.27;3.85;;;;;;;7.26;86.68;101450.91;5049060;28;20396;-68
2022/11/03 02:18:58;;;;;;;12.32;4.18;;;;;;;7.55;85.77;101444.88;5046369;28;20048;-68
2022/11/03 02:21:28;;;;;;;8.60;3.60;;;;;;;7.25;86.30;101446.59;5047767;28;20051;-68
2022/11/03 02:24:01;;;;;;;11.45;3.95;;;;;;;7.21;87.24;101438.88;5047902;28;20040;-67
2022/11/03 02:26:29;;;;;;;18.00;4.40;;;;;;;7.15;87.56;101439.91;5047109;28;20055;-67
2022/11/03 02:28:55;;;;;;;8.07;3.35;;;;;;;6.63;90.62;101445.59;5046997;28;20052;-67
2022/11/03 02:31:30;;;;;;;8.02;2.97;;;;;;;6.95;88.79;101436.94;5047372;28;20409;-68
2022/11/03 02:34:04;;;;;;;15.13;4.15;;;;;;;6.71;90.84;101432.38;5041105;28;20489;-68
2022/11/03 02:36:36;;;;;;;13.45;3.97;;;;;;;7.09;88.99;101444.44;5048107;28;20052;-68
2022/11/03 02:39:06;;;;;;;11.00;3.88;;;;;;;7.08;88.00;101440.09;5047379;28;20080;-68
2022/11/03 02:41:36;;;;;;;11.50;3.78;;;;;;;7.17;87.98;101432.03;5046672;28;20053;-68
2022/11/03 02:44:05;;;;;;;14.30;4.22;;;;;;;7.29;87.00;101431.69;5047799;28;20052;-68
2022/11/03 02:46:34;;;;;;;10.52;3.55;;;;;;;7.28;87.02;101424.78;5047347;28;20489;-68
2022/11/03 02:49:00;;;;;;;10.82;3.80;;;;;;;6.96;88.59;101417.81;5044272;28;20052;-68
2022/11/03 02:51:27;;;;;;;15.65;4.28;;;;;;;7.03;87.55;101416.75;5037775;28;20045;-68
2022/11/03 02:54:04;;;;;;;10.52;4.35;;;;;;;7.02;86.98;101409.00;5047610;28;20051;-68
2022/11/03 02:56:32;;;;;;;9.40;4.30;;;;;;;6.99;87.38;101414.25;5047672;28;20045;-68
2022/11/03 02:59:02;;;;;;;8.60;4.30;;;;;;;6.79;88.76;101413.06;5046915;28;20049;-68
2022/11/03 03:01:35;;;;;;;9.70;4.10;;;;;;;6.79;88.56;101405.22;5047464;28;20045;-68
2022/11/03 03:04:06;;;;;;;9.35;4.47;;;;;;;6.79;88.54;101410.44;5045358;28;20044;-68
2022/11/03 03:06:36;;;;;;;10.05;4.47;;;;;;;6.95;88.20;101404.84;5046230;28;20048;-68
2022/11/03 03:09:06;;;;;;;11.70;4.72;;;;;;;6.84;88.18;101411.16;5043088;28;20622;-67
2022/11/03 03:11:38;;;;;;;10.05;4.10;;;;;;;6.81;88.60;101410.38;5032974;28;20038;-68
2022/11/03 03:14:11;;;;;;;12.80;4.53;;;;;;;6.59;89.63;101397.03;5037108;28;20053;-68
2022/11/03 03:16:46;;;;;;;13.98;4.68;;;;;;;6.71;90.08;101401.09;5037629;28;20051;-68
2022/11/03 03:19:22;;;;;;;19.75;3.92;;;;;;;7.05;86.89;101401.09;5034377;28;20501;-68
2022/11/03 03:21:52;;;;;;;12.18;4.15;;;;;;;7.15;87.14;101389.50;5034310;28;20163;-68
2022/11/03 03:24:25;;;;;;;7.72;3.33;;;;;;;6.96;87.41;101388.28;5035935;28;20060;-68
2022/11/03 03:26:53;;;;;;;13.57;4.13;;;;;;;7.23;86.03;101391.00;5034475;28;20049;-68
2022/11/03 03:29:26;;;;;;;12.48;4.20;;;;;;;6.95;88.02;101386.59;5034667;28;20056;-68
2022/11/03 03:31:57;;;;;;;11.68;4.50;;;;;;;7.34;85.44;101390.72;5036861;28;20080;-68
2022/11/03 03:34:26;;;;;;;16.90;4.05;;;;;;;7.26;86.02;101384.84;5035109;28;20084;-68
2022/11/03 03:36:56;;;;;;;12.80;4.47;;;;;;;6.94;87.17;101380.50;5036250;28;20064;-68
2022/11/03 03:39:27;;;;;;;14.85;4.28;;;;;;;7.02;86.87;101385.53;5032957;28;20053;-67
2022/11/03 03:41:56;;;;;;;10.93;4.15;;;;;;;6.73;89.78;101394.94;5033222;28;20049;-67
2022/11/03 03:44:24;;;;;;;15.38;3.92;;;;;;;6.78;89.22;101393.09;5034663;28;20049;-67
2022/11/03 03:46:55;;;;;;;11.40;4.00;;;;;;;6.99;87.85;101394.25;5035009;28;20527;-68
2022/11/03 03:49:22;;;;;;;12.43;4.28;;;;;;;6.89;88.22;101392.81;5034330;28;20049;-68
2022/11/03 03:51:50;;;;;;;7.43;3.65;;;;;;;6.72;88.61;101392.41;5036887;28;20059;-68
2022/11/03 03:54:16;;;;;;;13.75;4.03;;;;;;;6.92;88.07;101387.50;5038026;28;20770;-68
2022/11/03 03:56:47;;;;;;;9.75;4.35;;;;;;;7.06;87.36;101377.56;5032809;28;20060;-68
2022/11/03 03:59:14;;;;;;;10.38;4.13;;;;;;;6.75;89.35;101380.13;5032251;28;20060;-67
2022/11/03 04:01:42;;;;;;;9.80;4.68;;;;;;;6.71;89.79;101375.91;5036483;28;20076;-67
2022/11/03 04:04:09;;;;;;;11.02;4.72;;;;;;;6.48;91.60;101375.59;5038597;28;20052;-67
2022/11/03 04:06:35;;;;;;;10.85;4.45;;;;;;;6.64;90.31;101371.72;5035697;28;20055;-67
2022/11/03 04:09:02;;;;;;;10.88;4.35;;;;;;;6.73;90.32;101379.31;5037067;28;20056;-67
2022/11/03 04:22:29;;;;;;;11.73;4.93;;;;;;;6.70;90.44;101353.31;5036255;28;20098;-68
2022/11/03 04:24:58;;;;;;;12.70;4.22;;;;;;;6.66;90.85;101351.69;5034137;28;20314;-68
2022/11/03 04:27:29;;;;;;;12.85;4.40;;;;;;;6.60;91.06;101351.84;5034467;28;20115;-68
2022/11/03 04:29:59;;;;;;;12.48;3.92;;;;;;;6.60;91.00;101359.69;5036080;28;20052;-68
2022/11/03 04:32:29;;;;;;;15.38;4.15;;;;;;;6.86;89.22;101359.00;5030915;28;20052;-68
2022/11/03 04:34:55;;;;;;;10.30;4.10;;;;;;;6.75;89.60;101356.69;5034887;28;20055;-68
2022/11/03 04:37:21;;;;;;;11.77;5.00;;;;;;;7.11;87.95;101353.97;5035833;28;20064;-67
2022/11/03 04:39:48;;;;;;;12.88;4.38;;;;;;;7.22;86.49;101341.47;5034559;28;20053;-67
2022/11/03 04:42:18;;;;;;;10.02;4.10;;;;;;;7.09;87.36;101337.53;5036110;28;20064;-68
2022/11/03 04:44:45;;;;;;;11.02;4.50;;;;;;;6.90;87.83;101329.34;5035097;28;20519;-68
2022/11/03 04:47:13;;;;;;;12.90;4.68;;;;;;;7.12;86.75;101330.47;5035655;28;20060;-68
2022/11/03 04:49:41;;;;;;;9.93;3.95;;;;;;;7.15;86.29;101324.31;5032310;28;20532;-68
2022/11/03 04:52:14;;;;;;;11.15;4.35;;;;;;;7.02;87.11;101325.56;5034583;28;20050;-68
2022/11/03 04:54:41;;;;;;;18.55;4.20;;;;;;;7.14;86.68;101330.41;5035742;28;20049;-68
2022/11/03 04:57:11;;;;;;;12.73;4.20;;;;;;;6.94;87.66;101324.91;5036263;28;20060;-68
2022/11/03 04:59:37;;;;;;;7.40;3.75;;;;;;;7.02;87.30;101325.56;5035645;28;20053;-68
2022/11/03 05:02:09;;;;;;;12.70;4.13;;;;;;;6.97;87.18;101324.81;5035082;28;20481;-67
2022/11/03 05:04:36;;;;;;;10.23;4.10;;;;;;;6.73;88.64;101326.31;5034946;28;20061;-67
2022/11/03 05:07:21;;;;;;;14.15;4.30;;;;;;;6.58;89.69;101319.75;5031512;28;20540;-67
2022/11/03 05:09:48;;;;;;;16.90;5.03;;;;;;;7.00;87.06;101309.94;5035457;28;20045;-68
2022/11/03 05:12:16;;;;;;;11.43;4.57;;;;;;;6.92;86.58;101305.81;5033642;28;20060;-68
2022/11/03 05:14:42;;;;;;;16.88;4.68;;;;;;;6.50;88.14;101297.44;5035103;28;20132;-68
2022/11/03 05:17:21;;;;;;;12.70;4.80;;;;;;;6.21;91.88;101301.59;5035776;28;20057;-68
2022/11/03 05:19:48;;;;;;;11.40;4.95;;;;;;;6.42;92.24;101292.41;5033357;28;20704;-68
2022/11/03 05:22:20;;;;;;;12.10;4.85;;;;;;;6.57;91.29;101286.81;5034295;28;20060;-68
2022/11/03 05:24:46;;;;;;;11.50;4.90;;;;;;;6.42;92.83;101308.03;5033157;28;20152;-67
2022/11/03 05:27:18;;;;;;;12.38;4.65;;;;;;;6.71;90.36;101299.47;5036266;28;20076;-67
2022/11/03 05:29:45;;;;;;;11.48;4.88;;;;;;;6.76;90.38;101301.03;5037896;28;20053;-67
2022/11/03 05:32:14;;;;;;;11.70;4.38;;;;;;;7.22;88.05;101294.53;5037729;28;20689;-67
2022/11/03 05:34:43;;;;;;;12.45;4.78;;;;;;;7.09;87.88;101293.19;5037491;28;20053;-67
2022/11/03 05:37:23;;;;;;;13.77;4.45;;;;;;;7.03;88.93;101286.38;5038108;28;20053;-68
2022/11/03 05:39:51;;;;;;;11.05;4.28;;;;;;;6.83;89.11;101276.53;5030674;28;20045;-67
2022/11/03 05:42:30;;;;;;;10.43;4.32;;;;;;;6.96;89.29;101277.03;5038307;28;20740;-67
2022/11/03 05:44:57;;;;;;;11.13;4.95;;;;;;;7.35;86.83;101272.41;5038565;28;20053;-67
2022/11/03 05:47:27;;;;;;;15.35;4.70;;;;;;;7.60;85.29;101270.78;5036807;28;20722;-67
2022/11/03 05:49:59;;;;;;;11.60;4.03;;;;;;;7.75;84.31;101261.59;5037449;28;20053;-67
2022/11/03 05:52:28;;;;;;;6.63;3.85;;;;;;;7.98;82.86;101260.88;5036600;28;20083;-67
2022/11/03 05:54:58;;;;;;;13.23;4.55;;;;;;;7.90;82.63;101268.94;5038018;28;20060;-67
2022/11/03 05:57:26;;;;;;;8.60;4.47;;;;;;;7.66;82.53;101273.19;5038098;28;20382;-67
2022/11/03 05:59:52;;;;;;;19.65;5.28;;;;;;;7.16;84.63;101268.66;5033917;28;20406;-67
2022/11/03 06:02:37;;;;;;;9.65;5.25;;;;;;;7.25;85.08;101263.13;5038199;28;20057;-67
2022/11/03 06:05:15;;;;;;;12.05;4.50;;;;;;;7.20;84.38;101260.69;5036210;28;20056;-67
2022/11/03 06:07:43;;;;;;;20.63;5.25;;;;;;;6.89;86.14;101261.59;5038159;28;20467;-68
2022/11/03 06:10:23;;;;;;;9.65;4.40;;;;;;;6.95;85.62;101261.44;5033561;28;20060;-67
2022/11/03 06:12:50;;;;;;;15.52;4.47;;;;;;;7.08;83.93;101255.81;5038948;28;20059;-68
2022/11/03 06:15:27;;;;;;;12.27;4.70;;;;;;;6.98;84.71;101266.56;5036543;28;20708;-67
2022/11/03 06:17:53;;;;;;;9.50;4.43;;;;;;;7.13;84.75;101264.34;5036695;28;20057;-67
2022/11/03 06:20:21;;;;;;;11.75;4.53;;;;;;;7.46;82.83;101274.72;5038402;28;20063;-67
2022/11/03 06:22:52;;;;;;;12.82;4.25;;;;;;;7.58;82.05;101272.56;5039018;28;20046;-67
2022/11/03 06:25:25;;;;;;;11.32;4.88;;;;;;;7.88;80.72;101270.75;5037549;28;20438;-67
2022/11/03 06:27:52;;;;;;;;;;;;;;;7.69;82.09;101265.25;5032378;28;20052;-67
2022/11/03 06:30:26;;;;;;;9.55;4.43;;;;;;;7.81;80.98;101270.09;5035242;28;20662;-67
2022/11/03 06:32:53;;;;;;;11.93;5.28;;;;;;;7.74;81.12;101257.28;5037577;28;20045;-67
2022/11/03 06:35:20;;;;;;;10.05;4.03;;;;;;;7.72;80.22;101266.94;5035769;28;20056;-67
2022/11/03 06:37:46;;;;;;;10.13;4.25;;;;;;;7.64;79.96;101255.88;5034705;28;20431;-67
2022/11/03 06:40:37;;;;;;;12.90;4.53;;;;;;;7.51;81.18;101255.38;5038575;28;20076;-67
2022/11/03 06:43:21;;;;;;;14.00;4.93;;;;;;;7.16;82.18;101253.00;5035534;28;20472;-67
2022/11/03 06:45:54;;;;;;;7.75;4.15;;;;;;;6.66;85.07;101263.09;5034702;28;20053;-68
2022/11/03 06:48:22;;;;;;;;;;;;;;;6.40;88.46;101259.47;5036535;28;20077;-67
2022/11/03 06:50:49;;;;;;;12.75;4.75;;;;;;;6.49;88.89;101260.09;5034344;28;19928;-67
2022/11/03 06:53:21;;;;;;;11.88;4.95;;;;;;;6.67;89.79;101256.13;5034142;28;20049;-67
2022/11/03 06:55:49;;;;;;;15.05;5.05;;;;;;;7.19;87.26;101243.31;5035880;28;20179;-67
2022/11/03 06:58:22;;;;;;;10.32;4.57;;;;;;;6.69;89.88;101252.56;5035792;28;20056;-67
2022/11/03 07:00:49;;;;;;;13.43;4.65;;;;;;;6.99;89.00;101243.03;5037227;28;20059;-67
2022/11/03 07:03:21;;;;;;;9.27;4.88;;;;;;;6.90;90.45;101237.25;5035756;28;20049;-68
2022/11/03 07:05:47;;;;;;;9.48;5.05;;;;;;;7.30;88.90;101240.41;5032972;28;20465;-67
2022/11/03 07:08:22;;;;;;;10.93;5.28;;;;;;;7.72;86.78;101236.44;5036524;28;20055;-67
2022/11/03 07:10:51;;;;;;;13.13;4.80;;;;;;;7.99;85.45;101241.66;5037275;28;20166;-68
2022/11/03 07:13:22;;;;;;;10.35;4.60;;;;;;;7.98;86.22;101234.75;5034557;28;20132;-67
2022/11/03 07:15:49;;;;;;;14.48;4.72;;;;;;;8.21;86.61;101238.28;5035582;28;20068;-67
2022/11/03 07:18:21;;;;;;;11.10;4.10;;;;;;;8.45;84.96;101234.03;5034901;28;20057;-68
2022/11/03 07:20:48;;;;;;;6.75;2.63;;;;;;;8.23;83.81;101236.50;5036482;28;20052;-68
2022/11/03 07:23:18;;;;;;;11.75;3.58;;;;;;;8.34;85.02;101236.16;5035784;28;20103;-67
2022/11/03 07:25:49;;;;;;;12.40;3.95;;;;;;;8.92;83.87;101234.06;5036968;28;20053;-67
2022/11/03 07:28:17;;;;;;;12.07;3.90;;;;;;;9.13;81.14;101246.31;5035654;28;20056;-67
2022/11/03 07:30:44;;;;;;;12.55;3.75;;;;;;;9.68;79.44;101240.66;5035174;28;20045;-68
2022/11/03 07:33:14;;;;;;;8.50;3.28;;;;;;;10.12;78.40;101238.00;5037436;28;20056;-67
2022/11/03 07:35:42;;;;;;;10.07;3.55;;;;;;;10.10;77.81;101242.44;5036788;28;20922;-67
2022/11/03 07:38:13;;;;;;;9.20;3.45;;;;;;;10.06;78.25;101240.88;5035170;28;20049;-67
2022/11/03 07:40:40;;;;;;;9.75;3.17;;;;;;;10.03;77.08;101223.53;5034078;28;20053;-67
2022/11/03 07:43:15;;;;;;;11.63;3.85;;;;;;;10.64;73.67;101227.00;5038758;28;20045;-67
2022/11/03 07:45:48;;;;;;;9.73;3.53;;;;;;;10.01;77.67;101216.66;5033479;28;20436;-67
2022/11/03 07:48:19;;;;;;;13.48;4.25;;;;;;;10.09;77.04;101214.53;5035958;28;20052;-67
2022/11/03 07:50:46;;;;;;;10.45;3.60;;;;;;;10.60;75.77;101220.22;5035356;28;20048;-67
2022/11/03 07:53:20;;;;;;;14.25;3.45;;;;;;;10.90;74.31;101204.84;5036799;28;20459;-67
2022/11/03 07:55:46;;;;;;;13.90;3.40;;;;;;;11.11;72.73;101213.53;5036963;28;20048;-67
2022/11/03 07:58:21;;;;;;;14.88;4.10;;;;;;;11.10;72.79;101201.31;5033755;28;20056;-67
2022/11/03 08:00:49;;;;;;;7.47;3.40;;;;;;;10.70;74.48;101202.28;5032109;28;20053;-67
2022/11/03 08:03:26;;;;;;;8.77;3.42;;;;;;;10.78;74.84;101188.84;5035153;28;20045;-67
2022/11/03 08:05:53;;;;;;;8.15;3.40;;;;;;;11.40;73.23;101185.91;5034152;28;20115;-68
2022/11/03 08:08:19;;;;;;;8.88;3.25;;;;;;;11.41;72.91;101190.22;5035425;28;21353;-67
2022/11/03 08:10:46;;;;;;;11.35;4.55;;;;;;;11.30;72.65;101187.28;5034942;28;20049;-68
2022/11/03 08:13:12;;;;;;;11.40;4.00;;;;;;;11.55;71.78;101182.53;5035955;28;20056;-67
2022/11/03 08:15:39;;;;;;;6.65;3.05;;;;;;;11.16;72.92;101177.41;5035236;28;20053;-68
2022/11/03 08:18:06;;;;;;;8.57;3.22;;;;;;;11.39;73.22;101177.16;5034821;28;20063;-67
2022/11/03 08:20:33;;;;;;;10.90;3.10;;;;;;;12.03;70.97;101166.13;5032963;28;20049;-67
2022/11/03 08:22:59;;;;;;;10.75;3.10;;;;;;;12.23;69.57;101163.34;5034800;28;20049;-67
2022/11/03 08:25:26;;;;;;;10.57;3.03;;;;;;;11.86;70.07;101161.72;5033354;28;20045;-67
2022/11/03 08:27:52;;;;;;;8.43;2.70;;;;;;;11.38;72.01;101158.88;5035348;28;20061;-68
2022/11/03 08:30:19;;;;;;;11.70;3.30;;;;;;;11.54;72.82;101149.31;5035338;28;20110;-67
2022/11/03 08:32:45;;;;;;;7.72;2.92;;;;;;;11.79;71.96;101149.81;5037008;28;20067;-67
2022/11/03 08:35:13;;;;;;;8.30;3.38;;;;;;;11.37;72.68;101147.53;5037233;28;20056;-67
2022/11/03 08:37:39;;;;;;;10.45;3.00;;;;;;;10.73;75.50;101141.81;5034416;28;20057;-67
2022/11/03 08:40:08;;;;;;;20.55;3.33;;;;;;;11.09;73.83;101134.00;5034197;28;20060;-67
2022/11/03 08:42:34;;;;;;;13.88;3.42;;;;;;;11.06;75.11;101129.75;5035815;28;20061;-67
2022/11/03 08:45:00;;;;;;;8.85;2.78;;;;;;;10.94;75.59;101129.50;5034204;28;20112;-68
2022/11/03 08:47:27;;;;;;;8.50;3.20;;;;;;;10.71;76.45;101125.31;5034570;28;20045;-66
2022/11/03 08:49:53;;;;;;;11.07;3.80;;;;;;;11.02;77.13;101128.19;5036220;28;20064;-67
2022/11/03 08:52:21;;;;;;;11.15;3.30;;;;;;;10.96;75.56;101125.03;5033790;28;20496;-67
2022/11/03 08:54:47;;;;;;;7.90;3.33;;;;;;;11.08;74.90;101119.19;5033018;28;20049;-67
2022/11/03 08:57:14;;;;;;;11.30;3.42;;;;;;;11.27;76.82;101106.88;5034668;28;20743;-68
2022/11/03 08:59:41;;;;;;;10.27;3.65;;;;;;;11.75;74.34;101115.94;5033737;28;20067;-67
2022/11/03 09:02:07;;;;;;;10.02;3.83;;;;;;;12.30;72.13;101106.88;5037871;28;20057;-66
2022/11/03 09:04:34;;;;;;;13.48;4.60;;;;;;;12.37;71.17;101105.63;5039953;28;20056;-66
2022/11/03 09:07:00;;;;;;;16.08;5.03;;;;;;;11.82;71.45;101107.66;5039978;28;20044;-67
2022/11/03 09:09:28;;;;;;;13.40;5.53;;;;;;;11.15;73.78;101104.84;5038679;28;20044;-67
2022/11/03 09:11:55;;;;;;;23.08;7.35;;;;;;;11.34;74.62;101104.81;5036342;28;20049;-68
2022/11/03 09:14:21;;;;;;;11.75;5.80;;;;;;;11.47;74.64;101106.75;5037361;28;20045;-68
2022/11/03 09:16:47;;;;;;;16.30;5.80;;;;;;;10.94;75.74;101095.41;5036740;28;20360;-68
2022/11/03 09:19:14;;;;;;;11.25;4.55;;;;;;;11.56;76.64;101090.56;5038406;28;20060;-68
2022/11/03 09:21:40;;;;;;;11.85;4.43;;;;;;;11.66;74.48;101094.41;5037287;28;20053;-68
2022/11/03 09:24:07;;;;;;;10.43;3.85;;;;;;;11.02;76.89;101085.34;5037629;28;20049;-68
2022/11/03 09:26:36;;;;;;;8.57;3.10;;;;;;;10.89;77.50;101077.25;5037145;28;21467;-68
2022/11/03 09:29:02;;;;;;;12.35;3.67;;;;;;;10.95;77.74;101082.19;5036127;28;20041;-67
2022/11/03 09:31:29;;;;;;;12.70;3.25;;;;;;;10.85;78.41;101075.69;5035263;28;20429;-68
2022/11/03 09:33:56;;;;;;;9.02;2.97;;;;;;;10.63;80.02;101070.59;5040509;28;20068;-68
2022/11/03 09:36:22;;;;;;;9.50;3.45;;;;;;;10.80;79.36;101071.56;5037622;28;20049;-68
2022/11/03 09:38:48;;;;;;;14.55;3.20;;;;;;;11.03;78.89;101063.44;5036478;28;20053;-69
2022/11/03 09:41:17;;;;;;;16.70;3.55;;;;;;;10.89;79.26;101065.91;5037676;28;20049;-68
2022/11/03 09:43:46;;;;;;;11.32;3.38;;;;;;;10.58;80.00;101056.84;5040492;28;21384;-68
2022/11/03 09:46:13;;;;;;;6.35;2.90;;;;;;;11.10;78.55;101060.44;5034386;28;20049;-68
2022/11/03 09:48:40;;;;;;;12.07;3.65;;;;;;;11.13;77.43;101062.94;5040183;28;20557;-68
2022/11/03 09:51:10;;;;;;;12.48;3.20;;;;;;;11.23;77.63;101052.84;5038500;28;20048;-68
2022/11/03 09:53:36;;;;;;;7.78;3.33;;;;;;;11.29;77.13;101052.53;5037638;28;20056;-68
2022/11/03 09:56:03;;;;;;;13.45;3.55;;;;;;;10.79;79.06;101046.28;5037855;28;20045;-68
2022/11/03 09:58:29;;;;;;;7.85;2.90;;;;;;;11.16;78.83;101035.66;5038413;28;20048;-67
2022/11/03 10:00:57;;;;;;;9.90;2.95;;;;;;;11.29;77.27;101034.16;5034596;28;20080;-68
2022/11/03 10:03:24;;;;;;;12.45;3.20;;;;;;;11.32;77.71;101038.38;5039369;28;20049;-68
2022/11/03 10:05:50;;;;;;;12.95;3.25;;;;;;;10.94;78.37;101032.44;5037022;28;20053;-68
2022/11/03 10:08:22;;;;;;;16.10;3.40;;;;;;;11.48;77.68;101031.47;5037928;28;20052;-68
2022/11/03 10:10:48;;;;;;;10.17;3.10;;;;;;;11.21;78.30;101029.28;5037709;28;20080;-68
2022/11/03 10:13:22;;;;;;;7.40;3.13;;;;;;;11.00;79.58;101026.88;5037577;28;20390;-68
2022/11/03 10:15:49;;;;;;;10.25;3.40;;;;;;;10.93;80.25;101026.31;5037326;28;20057;-68
2022/11/03 10:18:17;;;;;;;8.13;3.03;;;;;;;11.02;80.03;101027.63;5036100;28;20443;-69
2022/11/03 10:20:44;;;;;;;11.15;3.28;;;;;;;11.29;77.58;101013.16;5039492;28;20053;-69
2022/11/03 10:23:10;;;;;;;9.32;3.20;;;;;;;11.65;77.02;101006.03;5033824;28;20048;-68
2022/11/03 10:25:39;;;;;;;12.82;3.95;;;;;;;11.07;78.59;101012.53;5035978;28;20456;-68
2022/11/03 10:28:27;;;;;;;15.18;3.30;;;;;;;10.99;80.03;101015.53;5035118;28;20420;-68
2022/11/03 10:30:55;;;;;;;11.25;3.38;;;;;;;11.24;79.75;101009.91;5032404;28;20056;-69
2022/11/03 10:33:28;;;;;;;11.80;3.33;;;;;;;11.68;79.43;101005.84;5036077;28;20070;-68
2022/11/03 10:35:56;;;;;;;7.63;3.00;;;;;;;11.85;76.69;100997.13;5038190;28;20051;-68
2022/11/03 10:38:27;;;;;;;9.88;3.30;;;;;;;12.52;76.28;100996.97;5037476;28;20536;-68
2022/11/03 10:40:54;;;;;;;6.90;3.22;;;;;;;12.29;75.34;100993.91;5034720;28;20079;-68
2022/11/03 10:43:21;;;;;;;7.80;3.45;;;;;;;12.42;75.64;100992.28;5038196;28;20053;-69
2022/11/03 10:45:48;;;;;;;8.48;3.38;;;;;;;12.16;76.18;100996.31;5038013;28;20117;-68
2022/11/03 10:48:15;;;;;;;11.65;3.90;;;;;;;12.44;75.12;100987.78;5037465;28;20056;-68
2022/11/03 10:50:43;;;;;;;10.50;3.50;;;;;;;12.20;76.75;100985.56;5035201;28;20560;-68
2022/11/03 10:53:17;;;;;;;6.18;2.83;;;;;;;12.02;76.73;100978.69;5038387;28;20056;-68
2022/11/03 10:55:43;;;;;;;8.32;2.90;;;;;;;11.89;77.43;100980.28;5037149;28;21342;-68
2022/11/03 10:58:10;;;;;;;13.77;3.53;;;;;;;11.88;77.93;100977.72;5035562;28;20080;-68
2022/11/03 11:00:36;;;;;;;12.77;3.15;;;;;;;12.14;77.78;100972.78;5037662;28;20053;-68
2022/11/03 11:03:05;;;;;;;8.38;3.63;;;;;;;12.36;76.70;100972.44;5037600;28;20060;-69
2022/11/03 11:05:32;;;;;;;7.80;3.47;;;;;;;12.75;76.02;100965.88;5033947;28;20052;-69
2022/11/03 11:08:00;;;;;;;8.80;3.80;;;;;;;13.35;74.72;100945.69;5037237;28;20053;-68
2022/11/03 11:10:30;;;;;;;9.23;3.40;;;;;;;13.55;73.06;100951.47;5033571;28;20140;-68
2022/11/03 11:13:24;;;;;;;7.57;3.40;;;;;;;14.33;70.68;100944.81;5036770;28;20137;-68
2022/11/03 11:15:52;;;;;;;10.30;3.13;;;;;;;13.79;71.00;100937.69;5037196;28;20049;-68
2022/11/03 11:18:52;;;;;;;13.70;3.28;;;;;;;14.14;71.15;100931.94;5035484;28;20052;-68
2022/11/03 11:21:50;;;;;;;10.43;3.20;;;;;;;13.62;72.27;100915.88;5035469;28;20044;-68
2022/11/03 11:25:01;;;;;;;11.73;3.17;;;;;;;14.19;70.50;100925.53;5035010;28;20044;-67
2022/11/03 11:27:47;;;;;;;7.18;2.83;;;;;;;13.93;71.16;100911.34;5036609;28;20044;-67
2022/11/03 11:31:01;;;;;;;6.07;2.50;;;;;;;13.85;72.10;100908.34;5033100;28;20504;-67
2022/11/03 11:33:30;;;;;;;8.65;2.55;;;;;;;14.20;70.70;100906.09;5036170;28;20053;-67
2022/11/03 11:36:21;;;;;;;7.68;2.78;;;;;;;14.72;70.41;100895.69;5035003;28;20045;-67
2022/11/03 11:39:09;;;;;;;5.88;2.65;;;;;;;14.79;69.54;100887.25;5032601;28;20060;-67
2022/11/03 11:42:06;;;;;;;8.95;3.20;;;;;;;14.17;69.70;100883.44;5035599;28;20048;-67
2022/11/03 11:44:52;;;;;;;7.78;2.95;;;;;;;14.53;70.61;100874.94;5036623;28;20056;-67
2022/11/03 11:47:25;;;;;;;11.18;3.60;;;;;;;15.13;68.01;100869.13;5037007;28;20053;-67
2022/11/03 11:50:02;;;;;;;7.30;2.25;;;;;;;14.24;67.66;100866.25;5038137;28;20060;-66
2022/11/03 11:52:30;;;;;;;10.32;2.72;;;;;;;14.48;68.96;100869.97;5034863;28;20528;-67
2022/11/03 11:54:56;;;;;;;6.93;2.35;;;;;;;15.12;66.92;100857.72;5034117;28;20433;-67
2022/11/03 11:57:24;;;;;;;7.45;2.05;;;;;;;15.60;65.71;100856.13;5034611;28;20053;-67
2022/11/03 11:59:51;;;;;;;8.52;2.65;;;;;;;15.05;65.06;100843.25;5036883;28;20072;-67